Time;durP1;ratioP1;P1;durP2;ratioP2;P2;SDS_P1;SDS_P2;PMS_P1;PMS_P2;Temp;Humidity;BMP_temperature;BMP_pressure;BME280_temperature;BME280_humidity;BME280_pressure;Samples;Min_cycle;Max_cycle;Signal;HPM_P1;HPM_P2
2023/05/19 00:01:51;;;;;;;3.03;1.48;;;11.10;99.90;;;;;;4993599;28;20034;-52
2023/05/19 00:04:17;;;;;;;3.25;2.10;;;11.00;99.90;;;;;;4993680;28;20061;-54
2023/05/19 00:06:45;;;;;;;9.50;3.47;;;11.00;99.90;;;;;;4993608;28;20061;-51
2023/05/19 00:09:11;;;;;;;10.00;2.30;;;11.00;99.90;;;;;;4992995;28;20026;-52
2023/05/19 00:11:38;;;;;;;5.70;2.08;;;11.00;99.90;;;;;;4993215;28;20390;-54
2023/05/19 00:14:06;;;;;;;6.13;2.45;;;11.00;99.90;;;;;;4993487;28;20022;-53
2023/05/19 00:16:32;;;;;;;4.45;2.00;;;11.00;99.90;;;;;;4993465;28;20037;-56
2023/05/19 00:18:59;;;;;;;3.88;1.75;;;11.00;99.90;;;;;;4993119;28;20490;-50
2023/05/19 00:21:25;;;;;;;9.52;2.17;;;10.90;99.90;;;;;;4993194;28;20035;-54
2023/05/19 00:23:51;;;;;;;10.93;2.08;;;10.90;99.90;;;;;;4993378;28;20190;-50
2023/05/19 00:26:16;;;;;;;2.97;1.75;;;10.90;99.90;;;;;;4993089;28;20041;-53
2023/05/19 00:28:42;;;;;;;4.00;1.90;;;10.80;99.90;;;;;;4992809;28;20088;-54
2023/05/19 00:31:09;;;;;;;5.13;2.10;;;10.80;99.90;;;;;;4993297;28;20048;-52
2023/05/19 00:33:34;;;;;;;8.05;2.70;;;10.70;99.90;;;;;;4992769;28;20397;-54
2023/05/19 00:36:02;;;;;;;6.75;2.17;;;10.60;99.90;;;;;;4993797;28;20474;-49
2023/05/19 00:38:29;;;;;;;6.18;2.40;;;10.60;99.90;;;;;;4992687;28;20018;-50
2023/05/19 00:40:55;;;;;;;4.13;2.08;;;10.60;99.90;;;;;;4992918;28;20026;-51
2023/05/19 00:43:20;;;;;;;8.98;2.83;;;10.60;99.90;;;;;;4992624;28;20057;-52
2023/05/19 00:45:46;;;;;;;9.05;2.22;;;10.50;99.90;;;;;;4992991;28;20467;-52
2023/05/19 00:48:11;;;;;;;7.63;2.25;;;10.50;99.90;;;;;;4992998;28;20077;-49
2023/05/19 00:50:37;;;;;;;4.03;2.03;;;10.50;99.90;;;;;;4992770;28;20038;-53
2023/05/19 00:53:03;;;;;;;3.90;1.98;;;10.50;99.90;;;;;;4991279;28;20025;-54
2023/05/19 00:55:30;;;;;;;9.75;2.38;;;10.40;99.90;;;;;;4991739;28;20027;-49
2023/05/19 00:57:56;;;;;;;7.75;2.42;;;10.40;99.90;;;;;;4992359;28;20030;-52
2023/05/19 01:00:22;;;;;;;8.18;2.53;;;10.40;99.90;;;;;;4992523;28;20095;-52
2023/05/19 01:02:49;;;;;;;7.03;2.10;;;10.40;99.90;;;;;;4992375;28;20026;-54
2023/05/19 01:05:15;;;;;;;4.47;2.13;;;10.40;99.90;;;;;;4992552;28;20054;-48
2023/05/19 01:07:41;;;;;;;7.03;2.42;;;10.40;99.90;;;;;;4992608;28;20085;-51
2023/05/19 01:10:07;;;;;;;6.72;2.05;;;10.40;99.90;;;;;;4991973;28;20102;-54
2023/05/19 01:12:33;;;;;;;7.57;2.10;;;10.40;99.90;;;;;;4992161;28;20027;-51
2023/05/19 01:15:00;;;;;;;7.00;2.05;;;10.30;99.90;;;;;;4992228;28;20029;-48
2023/05/19 01:17:33;;;;;;;5.07;2.65;;;10.30;99.90;;;;;;4992400;28;20027;-51
2023/05/19 01:20:15;;;;;;;8.88;2.38;;;10.30;99.90;;;;;;4991711;28;20435;-55
2023/05/19 01:23:08;;;;;;;6.25;2.10;;;10.30;99.90;;;;;;4991942;28;20513;-54
2023/05/19 01:26:08;;;;;;;5.03;1.92;;;10.30;99.90;;;;;;4992238;28;20030;-49
2023/05/19 01:29:08;;;;;;;5.35;2.20;;;10.30;99.90;;;;;;4991931;28;20398;-52
2023/05/19 01:31:35;;;;;;;5.78;1.85;;;10.30;99.90;;;;;;4991842;28;20025;-51
2023/05/19 01:34:03;;;;;;;5.90;2.72;;;10.20;99.90;;;;;;4992034;28;20109;-53
2023/05/19 01:36:30;;;;;;;2.60;1.73;;;10.20;99.90;;;;;;4992130;28;20018;-55
2023/05/19 01:38:58;;;;;;;3.67;1.70;;;10.20;99.90;;;;;;4991305;28;20058;-50
2023/05/19 01:41:25;;;;;;;6.55;2.10;;;10.20;99.90;;;;;;4991873;28;20089;-53
2023/05/19 01:43:50;;;;;;;4.78;2.40;;;10.10;99.90;;;;;;4992060;28;20076;-51
2023/05/19 01:46:17;;;;;;;7.22;2.42;;;10.10;99.90;;;;;;4991994;28;20026;-46
2023/05/19 01:48:43;;;;;;;7.82;2.40;;;10.10;99.90;;;;;;4991581;28;20093;-50
2023/05/19 01:51:09;;;;;;;8.57;3.00;;;10.10;99.90;;;;;;4992085;28;20080;-52
2023/05/19 01:53:35;;;;;;;9.73;2.10;;;10.00;99.90;;;;;;4991839;28;20377;-50
2023/05/19 01:56:00;;;;;;;5.82;2.25;;;10.00;99.90;;;;;;4991102;28;20027;-51
2023/05/19 01:58:46;;;;;;;10.98;2.28;;;10.00;99.90;;;;;;4991570;28;20026;-51
2023/05/19 02:01:20;;;;;;;;;;;9.90;99.90;;;;;;4992367;28;20073;-50
2023/05/19 02:04:17;;;;;;;7.15;2.17;;;9.90;99.90;;;;;;4991944;28;19912;-52
2023/05/19 02:06:54;;;;;;;7.57;2.30;;;9.90;99.90;;;;;;4991927;28;20018;-50
2023/05/19 02:09:27;;;;;;;2.40;1.83;;;9.80;99.90;;;;;;4992162;28;20030;-53
2023/05/19 02:12:01;;;;;;;6.55;1.88;;;9.80;99.90;;;;;;4991619;28;20018;-50
2023/05/19 02:14:37;;;;;;;4.88;1.95;;;9.70;99.90;;;;;;4991947;28;20117;-46
2023/05/19 02:17:04;;;;;;;13.50;2.78;;;9.70;99.90;;;;;;4991778;28;20093;-55
2023/05/19 02:19:33;;;;;;;3.13;1.98;;;9.60;99.90;;;;;;4989922;28;20502;-49
2023/05/19 02:21:58;;;;;;;7.78;2.60;;;9.60;99.90;;;;;;4991459;28;20442;-51
2023/05/19 02:24:24;;;;;;;5.20;2.28;;;9.60;99.90;;;;;;4991710;28;20077;-46
2023/05/19 02:26:51;;;;;;;4.93;1.95;;;9.60;99.90;;;;;;4992087;28;20062;-54
2023/05/19 02:29:17;;;;;;;3.60;2.10;;;9.60;99.90;;;;;;4991430;28;20103;-52
2023/05/19 02:31:43;;;;;;;4.25;2.15;;;9.60;99.90;;;;;;4991335;28;20107;-54
2023/05/19 02:34:08;;;;;;;10.85;2.28;;;9.60;99.90;;;;;;4991516;28;20097;-50
2023/05/19 02:36:35;;;;;;;8.45;2.47;;;9.50;99.90;;;;;;4991748;28;20030;-49
2023/05/19 02:39:01;;;;;;;9.43;2.38;;;9.50;99.90;;;;;;4991249;28;20495;-49
2023/05/19 02:41:27;;;;;;;7.72;2.28;;;9.60;99.90;;;;;;4991751;28;20486;-53
2023/05/19 02:43:52;;;;;;;4.75;2.05;;;9.50;99.90;;;;;;4991665;28;20045;-48
2023/05/19 02:46:19;;;;;;;5.68;2.35;;;9.50;99.90;;;;;;4991623;28;20037;-48
2023/05/19 02:48:44;;;;;;;11.90;2.53;;;9.50;99.90;;;;;;4989840;28;20065;-50
2023/05/19 02:51:10;;;;;;;8.20;2.55;;;9.50;99.90;;;;;;4995275;28;20054;-50
2023/05/19 02:53:35;;;;;;;6.45;1.90;;;9.40;99.90;;;;;;4995699;28;20146;-49
2023/05/19 02:56:01;;;;;;;8.75;3.13;;;9.40;99.90;;;;;;4994116;28;20041;-51
2023/05/19 02:58:26;;;;;;;6.43;2.15;;;9.40;99.90;;;;;;4994499;28;20038;-52
2023/05/19 03:00:52;;;;;;;10.18;2.13;;;9.30;99.90;;;;;;4994895;28;20058;-52
2023/05/19 03:03:17;;;;;;;9.38;2.60;;;9.40;99.90;;;;;;4995105;28;20135;-50
2023/05/19 03:05:43;;;;;;;5.68;2.28;;;9.30;99.90;;;;;;4995213;28;20028;-52
2023/05/19 03:08:08;;;;;;;7.13;1.92;;;9.30;99.90;;;;;;4994729;28;20113;-50
2023/05/19 03:10:35;;;;;;;5.43;2.28;;;9.40;99.90;;;;;;4994916;28;20486;-51
2023/05/19 03:13:00;;;;;;;7.22;1.80;;;9.40;99.90;;;;;;4994605;28;20556;-52
2023/05/19 03:15:26;;;;;;;3.75;1.63;;;9.30;99.90;;;;;;4994732;28;20035;-53
2023/05/19 03:17:51;;;;;;;7.15;2.10;;;9.30;99.90;;;;;;4994668;28;20026;-50
2023/05/19 03:20:17;;;;;;;4.78;2.00;;;9.30;99.90;;;;;;4993995;28;20086;-52
2023/05/19 03:22:42;;;;;;;8.00;2.00;;;9.30;99.90;;;;;;4994172;28;20054;-55
2023/05/19 03:25:09;;;;;;;7.30;1.85;;;9.30;99.90;;;;;;4994392;28;20606;-48
2023/05/19 03:27:34;;;;;;;8.13;2.72;;;9.30;99.90;;;;;;4994329;28;20427;-53
2023/05/19 03:30:00;;;;;;;8.52;2.10;;;9.20;99.90;;;;;;4993674;28;20037;-50
2023/05/19 03:32:25;;;;;;;11.55;2.10;;;9.30;99.90;;;;;;4994010;28;20113;-53
2023/05/19 03:34:51;;;;;;;10.60;2.00;;;9.30;99.90;;;;;;4994344;28;20026;-57
2023/05/19 03:37:16;;;;;;;4.07;2.00;;;9.20;99.90;;;;;;4994201;28;20031;-51
2023/05/19 03:39:42;;;;;;;7.22;2.15;;;9.20;99.90;;;;;;4993852;28;20030;-53
2023/05/19 03:42:07;;;;;;;6.38;2.55;;;9.30;99.90;;;;;;4993713;28;20483;-56
2023/05/19 03:44:33;;;;;;;8.75;2.63;;;9.20;99.90;;;;;;4994152;28;20026;-49
2023/05/19 03:46:58;;;;;;;11.40;2.40;;;9.20;99.90;;;;;;4994062;28;20030;-53
2023/05/19 03:49:24;;;;;;;11.52;2.63;;;9.20;99.90;;;;;;4993446;28;20035;-57
2023/05/19 03:51:49;;;;;;;5.82;2.40;;;9.20;99.90;;;;;;4993707;28;20022;-54
2023/05/19 03:54:15;;;;;;;6.07;2.00;;;9.20;99.90;;;;;;4992695;28;20058;-56
2023/05/19 03:56:41;;;;;;;2.78;2.08;;;9.30;99.90;;;;;;4994038;28;20030;-50
2023/05/19 03:59:09;;;;;;;8.73;2.67;;;9.30;99.90;;;;;;4993485;28;20029;-53
2023/05/19 04:01:35;;;;;;;9.27;2.45;;;9.30;99.90;;;;;;4993002;28;20022;-55
2023/05/19 04:04:01;;;;;;;8.05;2.30;;;9.30;99.90;;;;;;4993817;28;20487;-52
2023/05/19 04:06:26;;;;;;;10.75;3.08;;;9.30;99.90;;;;;;4993431;28;20023;-57
2023/05/19 04:08:52;;;;;;;5.45;2.10;;;9.40;99.90;;;;;;4992790;28;20023;-51
2023/05/19 04:11:18;;;;;;;3.17;2.17;;;9.40;99.90;;;;;;4993372;28;20022;-51
2023/05/19 04:13:44;;;;;;;12.32;3.75;;;9.30;99.90;;;;;;4993356;28;20108;-49
2023/05/19 04:16:10;;;;;;;5.55;2.00;;;9.30;99.90;;;;;;4993322;28;20054;-55
2023/05/19 04:18:36;;;;;;;5.25;2.20;;;9.30;99.90;;;;;;4992909;28;20045;-50
2023/05/19 04:21:01;;;;;;;11.48;3.00;;;9.30;99.90;;;;;;4992948;28;20042;-53
2023/05/19 04:23:27;;;;;;;13.00;2.80;;;9.50;99.90;;;;;;4992838;28;20031;-53
2023/05/19 04:25:53;;;;;;;10.68;2.80;;;9.50;99.90;;;;;;4993149;28;20096;-49
2023/05/19 04:28:18;;;;;;;3.70;1.77;;;9.50;99.90;;;;;;4992888;28;20109;-54
2023/05/19 04:30:47;;;;;;;10.70;2.70;;;9.50;99.90;;;;;;4993062;28;20109;-51
2023/05/19 04:33:13;;;;;;;14.02;2.40;;;9.50;99.90;;;;;;4992851;28;20023;-51
2023/05/19 04:35:38;;;;;;;9.98;2.75;;;9.50;99.90;;;;;;4993041;28;20077;-51
2023/05/19 04:38:04;;;;;;;4.57;2.30;;;9.60;99.90;;;;;;4992748;28;20022;-49
2023/05/19 04:40:30;;;;;;;5.72;2.00;;;9.60;99.90;;;;;;4992875;28;20410;-53
2023/05/19 04:42:56;;;;;;;3.78;1.98;;;9.60;99.90;;;;;;4993377;28;20076;-53
2023/05/19 04:45:24;;;;;;;6.97;2.40;;;9.60;99.90;;;;;;4993245;28;20069;-54
2023/05/19 04:47:51;;;;;;;7.25;2.33;;;9.70;99.90;;;;;;4992819;28;20122;-55
2023/05/19 04:50:16;;;;;;;9.90;2.35;;;9.80;99.90;;;;;;4992132;28;20030;-51
2023/05/19 04:52:44;;;;;;;4.40;2.17;;;9.90;99.90;;;;;;4992375;28;20025;-53
2023/05/19 04:55:10;;;;;;;6.82;2.00;;;10.10;99.90;;;;;;4992119;28;20026;-50
2023/05/19 04:57:36;;;;;;;15.65;4.70;;;10.30;99.90;;;;;;4992620;28;20416;-51
2023/05/19 05:00:06;;;;;;;4.13;2.00;;;10.40;99.90;;;;;;4992280;28;20449;-48
2023/05/19 05:02:32;;;;;;;3.92;1.90;;;10.50;99.90;;;;;;4992081;28;20405;-49
2023/05/19 05:04:58;;;;;;;6.47;2.15;;;10.60;99.90;;;;;;4992530;28;20030;-49
2023/05/19 05:07:23;;;;;;;3.58;1.83;;;10.60;99.90;;;;;;4992421;28;20398;-49
2023/05/19 05:09:49;;;;;;;8.25;2.35;;;10.70;99.90;;;;;;4991795;28;20570;-52
2023/05/19 05:12:16;;;;;;;4.28;2.13;;;10.90;99.90;;;;;;4992186;28;20101;-55
2023/05/19 05:14:42;;;;;;;12.23;4.65;;;10.90;99.90;;;;;;4991935;28;20422;-51
2023/05/19 05:17:08;;;;;;;6.28;2.35;;;11.10;99.90;;;;;;4992142;28;20033;-50
2023/05/19 05:19:34;;;;;;;5.18;2.30;;;11.30;99.90;;;;;;4992270;28;20036;-51
2023/05/19 05:22:00;;;;;;;7.30;1.95;;;11.40;99.90;;;;;;4991922;28;20402;-50
2023/05/19 05:24:26;;;;;;;4.30;2.20;;;11.50;99.90;;;;;;4990450;28;20033;-50
2023/05/19 05:26:52;;;;;;;6.35;2.10;;;11.70;99.90;;;;;;4992107;28;20061;-52
2023/05/19 05:29:18;;;;;;;8.15;2.08;;;12.00;99.90;;;;;;4991671;28;20093;-52
2023/05/19 05:31:44;;;;;;;6.70;2.13;;;12.30;99.90;;;;;;4991942;28;20030;-51
2023/05/19 05:34:10;;;;;;;9.45;2.15;;;12.70;99.90;;;;;;4992330;28;20118;-52
2023/05/19 05:36:35;;;;;;;5.25;2.05;;;13.20;99.90;;;;;;4992011;28;20073;-52
2023/05/19 05:39:01;;;;;;;8.80;3.03;;;13.70;99.90;;;;;;4991406;28;20026;-52
2023/05/19 05:41:33;;;;;;;5.53;1.80;;;14.40;98.80;;;;;;4991617;28;20058;-50
2023/05/19 05:44:00;;;;;;;6.20;1.83;;;14.80;97.30;;;;;;4991787;28;20076;-53
2023/05/19 05:46:25;;;;;;;6.90;2.42;;;15.30;96.70;;;;;;4991793;28;20034;-48
2023/05/19 05:48:51;;;;;;;4.13;1.70;;;15.40;96.10;;;;;;4990042;28;20027;-51
2023/05/19 05:51:19;;;;;;;7.95;2.13;;;15.70;95.30;;;;;;4992061;28;20030;-53
2023/05/19 05:53:53;;;;;;;13.23;2.58;;;15.90;95.20;;;;;;4991762;28;20022;-51
2023/05/19 05:56:19;;;;;;;3.53;1.58;;;15.80;94.40;;;;;;4990875;28;20461;-52
2023/05/19 05:58:45;;;;;;;2.30;1.48;;;15.80;94.90;;;;;;4991419;28;20054;-52
2023/05/19 06:01:10;;;;;;;7.43;2.20;;;15.80;94.40;;;;;;4991986;28;20041;-53
2023/05/19 06:03:40;;;;;;;6.18;2.35;;;15.70;94.80;;;;;;4991712;28;20178;-51
2023/05/19 06:06:06;;;;;;;4.20;1.60;;;15.50;94.80;;;;;;4991749;28;20022;-50
2023/05/19 06:08:31;;;;;;;4.68;2.00;;;15.60;95.00;;;;;;4991310;28;20027;-50
2023/05/19 06:10:57;;;;;;;4.25;2.05;;;15.60;95.00;;;;;;4991503;28;20034;-55
2023/05/19 06:13:24;;;;;;;5.95;2.17;;;15.40;95.10;;;;;;4991352;28;20105;-48
2023/05/19 06:15:50;;;;;;;4.88;1.75;;;15.40;95.20;;;;;;4991681;28;20022;-53
2023/05/19 06:18:16;;;;;;;4.32;1.92;;;15.40;95.80;;;;;;4990196;28;20526;-49
2023/05/19 06:20:41;;;;;;;9.32;2.88;;;15.30;95.50;;;;;;4991487;28;20057;-55
2023/05/19 06:23:07;;;;;;;6.45;1.60;;;15.50;95.50;;;;;;4991288;28;20030;-53
2023/05/19 06:25:32;;;;;;;5.13;1.60;;;15.60;94.70;;;;;;4994156;28;20337;-52
2023/05/19 06:27:58;;;;;;;3.75;2.00;;;15.60;95.00;;;;;;4995288;28;20034;-49
2023/05/19 06:30:23;;;;;;;11.55;1.95;;;15.60;94.50;;;;;;4995613;28;20491;-55
2023/05/19 06:32:49;;;;;;;6.38;1.92;;;16.00;94.40;;;;;;4995383;28;20148;-51
2023/05/19 06:35:15;;;;;;;5.75;2.15;;;16.70;93.60;;;;;;4995465;28;20018;-51
2023/05/19 06:37:40;;;;;;;3.85;1.98;;;17.20;92.40;;;;;;4995662;28;20023;-52
2023/05/19 06:40:07;;;;;;;4.80;1.70;;;17.10;92.70;;;;;;4995103;28;20034;-55
2023/05/19 06:42:32;;;;;;;4.63;1.88;;;16.80;92.30;;;;;;4995096;28;20018;-53
2023/05/19 06:44:58;;;;;;;5.32;1.80;;;16.80;92.20;;;;;;4995463;28;20415;-50
2023/05/19 06:47:23;;;;;;;6.35;2.03;;;17.10;92.50;;;;;;4995402;28;20026;-52
2023/05/19 06:49:53;;;;;;;6.50;2.20;;;17.40;91.80;;;;;;4995219;28;20022;-50
2023/05/19 06:52:19;;;;;;;8.13;2.28;;;16.90;91.80;;;;;;4995065;28;20018;-52
2023/05/19 06:54:45;;;;;;;4.35;1.70;;;16.70;92.30;;;;;;4995576;28;20093;-52
2023/05/19 06:57:10;;;;;;;7.93;1.90;;;16.40;92.00;;;;;;4995268;28;20022;-54
2023/05/19 06:59:36;;;;;;;4.65;1.90;;;16.60;92.10;;;;;;4994863;28;20038;-49
2023/05/19 07:02:02;;;;;;;7.20;1.98;;;16.70;92.00;;;;;;4993462;28;20026;-51
2023/05/19 07:04:27;;;;;;;4.60;1.55;;;16.90;92.10;;;;;;4995271;28;20544;-53
2023/05/19 07:06:53;;;;;;;6.15;2.20;;;16.50;91.90;;;;;;4995112;28;20030;-53
2023/05/19 07:09:19;;;;;;;4.95;1.80;;;16.40;92.60;;;;;;4994310;28;20022;-53
2023/05/19 07:11:45;;;;;;;4.90;1.90;;;16.60;92.10;;;;;;4994201;28;20510;-54
2023/05/19 07:14:10;;;;;;;5.45;1.90;;;17.00;91.90;;;;;;4994583;28;20169;-53
2023/05/19 07:16:36;;;;;;;5.38;1.80;;;17.00;91.60;;;;;;4994472;28;20049;-51
2023/05/19 07:19:01;;;;;;;5.63;1.77;;;16.80;92.20;;;;;;4993939;28;20113;-55
2023/05/19 07:21:27;;;;;;;5.32;1.80;;;16.70;92.10;;;;;;4994202;28;20030;-54
2023/05/19 07:23:52;;;;;;;9.10;1.88;;;16.70;92.20;;;;;;4994274;28;20390;-55
2023/05/19 07:26:18;;;;;;;4.57;1.77;;;16.80;91.80;;;;;;4994520;28;20030;-52
2023/05/19 07:28:43;;;;;;;7.40;2.42;;;16.80;92.00;;;;;;4994258;28;20022;-50
2023/05/19 07:31:09;;;;;;;7.18;2.10;;;16.80;91.90;;;;;;4994235;28;20041;-49
2023/05/19 07:33:34;;;;;;;6.43;1.90;;;17.20;91.50;;;;;;4994445;28;20045;-50
2023/05/19 07:36:00;;;;;;;5.65;1.95;;;17.30;91.70;;;;;;4993227;28;20018;-53
2023/05/19 07:38:27;;;;;;;10.18;2.30;;;17.40;91.10;;;;;;4994236;28;20026;-54
2023/05/19 07:40:53;;;;;;;10.63;1.98;;;17.50;91.30;;;;;;4994411;28;20030;-53
2023/05/19 07:43:18;;;;;;;9.27;1.90;;;17.60;90.90;;;;;;4994351;28;20030;-49
2023/05/19 07:45:44;;;;;;;4.78;2.03;;;17.60;90.80;;;;;;4994063;28;20518;-50
2023/05/19 07:48:09;;;;;;;9.68;2.97;;;17.90;90.50;;;;;;4994024;28;20034;-49
2023/05/19 07:50:35;;;;;;;4.15;1.80;;;18.50;90.40;;;;;;4993912;28;20058;-55
2023/05/19 07:53:01;;;;;;;6.65;2.00;;;19.00;88.00;;;;;;4993410;28;20023;-50
2023/05/19 07:55:26;;;;;;;5.68;1.90;;;19.50;88.50;;;;;;4993884;28;20026;-53
2023/05/19 07:57:52;;;;;;;8.98;1.98;;;20.50;87.70;;;;;;4994108;28;20022;-48
2023/05/19 08:00:18;;;;;;;9.63;2.05;;;20.30;84.00;;;;;;4993497;28;20045;-52
2023/05/19 08:02:43;;;;;;;4.05;1.60;;;20.50;84.60;;;;;;4993617;28;20037;-49
2023/05/19 08:05:10;;;;;;;6.93;3.28;;;20.60;84.90;;;;;;4994041;28;20026;-54
2023/05/19 08:07:35;;;;;;;9.30;1.73;;;20.30;84.00;;;;;;4993741;28;20022;-55
2023/05/19 08:10:02;;;;;;;4.53;1.67;;;20.70;81.90;;;;;;4993445;28;20397;-50
2023/05/19 08:12:28;;;;;;;5.95;2.03;;;20.90;83.00;;;;;;4993466;28;20109;-56
2023/05/19 08:14:53;;;;;;;6.13;1.58;;;20.90;81.10;;;;;;4992637;28;20093;-51
2023/05/19 08:17:19;;;;;;;5.10;1.40;;;20.90;82.10;;;;;;4992534;28;20117;-49
2023/05/19 08:19:45;;;;;;;4.07;1.70;;;21.10;80.40;;;;;;4993211;28;20037;-49
2023/05/19 08:22:10;;;;;;;5.05;1.40;;;21.30;81.30;;;;;;4993239;28;20394;-51
2023/05/19 08:24:36;;;;;;;4.05;1.73;;;21.20;80.20;;;;;;4993621;28;20031;-51
2023/05/19 08:27:03;;;;;;;7.90;1.90;;;20.70;80.40;;;;;;4993696;28;20034;-51
2023/05/19 08:29:29;;;;;;;4.72;1.45;;;20.80;81.20;;;;;;4996222;28;20034;-52
2023/05/19 08:31:55;;;;;;;4.63;1.80;;;20.70;81.40;;;;;;4993953;28;20108;-49
2023/05/19 08:34:21;;;;;;;6.53;1.55;;;20.00;83.00;;;;;;4993117;28;20031;-50
2023/05/19 08:36:46;;;;;;;3.05;1.65;;;20.00;83.50;;;;;;4993340;28;20061;-47
2023/05/19 08:39:14;;;;;;;6.82;1.80;;;20.10;82.40;;;;;;4992975;28;20058;-48
2023/05/19 08:41:40;;;;;;;6.53;1.92;;;19.70;83.40;;;;;;4993971;28;20029;-47
2023/05/19 08:44:06;;;;;;;8.48;2.00;;;19.40;84.30;;;;;;5011108;28;20505;-48
2023/05/19 08:46:31;;;;;;;8.15;2.03;;;19.40;85.10;;;;;;5013459;28;20022;-46
2023/05/19 08:49:11;;;;;;;6.10;1.85;;;19.50;83.70;;;;;;5012202;28;20030;-49
2023/05/19 08:52:07;;;;;;;7.75;2.10;;;20.10;84.30;;;;;;5010036;28;20101;-48
2023/05/19 08:54:42;;;;;;;2.88;1.80;;;19.90;81.80;;;;;;4992521;28;20413;-57
2023/05/19 08:57:08;;;;;;;3.65;1.55;;;19.50;82.90;;;;;;4993269;28;20165;-49
2023/05/19 08:59:34;;;;;;;9.07;2.05;;;19.40;82.70;;;;;;4993764;28;20026;-47
2023/05/19 09:02:00;;;;;;;8.18;1.85;;;19.40;82.60;;;;;;4993466;28;20649;-48
2023/05/19 09:04:27;;;;;;;5.35;2.20;;;19.50;83.20;;;;;;4993538;28;20121;-46
2023/05/19 09:06:52;;;;;;;5.95;2.15;;;19.50;82.00;;;;;;4993527;28;20048;-45
2023/05/19 09:09:18;;;;;;;4.10;1.80;;;19.60;82.90;;;;;;4992996;28;20537;-45
2023/05/19 09:11:45;;;;;;;6.53;1.67;;;19.80;84.20;;;;;;4992677;28;20026;-49
2023/05/19 09:14:11;;;;;;;2.80;1.55;;;19.70;80.40;;;;;;4993081;28;20026;-46
2023/05/19 09:16:37;;;;;;;3.60;1.73;;;19.60;81.40;;;;;;4993045;28;20041;-49
2023/05/19 09:19:03;;;;;;;4.28;1.95;;;19.00;82.40;;;;;;4992545;28;20029;-45
2023/05/19 09:21:32;;;;;;;12.93;1.77;;;18.90;82.90;;;;;;4993292;28;20023;-46
2023/05/19 09:24:05;;;;;;;5.10;1.88;;;19.00;82.90;;;;;;4993126;28;20037;-46
2023/05/19 09:26:41;;;;;;;4.85;1.60;;;19.10;83.10;;;;;;4993104;28;20041;-45
2023/05/19 09:29:17;;;;;;;6.95;1.63;;;19.20;83.00;;;;;;4993218;28;20049;-44
2023/05/19 09:31:50;;;;;;;7.88;1.90;;;19.30;83.50;;;;;;4994066;28;20026;-50
2023/05/19 09:34:16;;;;;;;4.28;1.40;;;19.40;80.80;;;;;;4993322;28;20018;-54
2023/05/19 09:36:41;;;;;;;5.75;1.70;;;19.30;80.40;;;;;;4991455;28;20034;-49
2023/05/19 09:39:17;;;;;;;4.68;1.48;;;18.80;80.80;;;;;;4992277;28;20030;-46
2023/05/19 09:41:43;;;;;;;3.35;1.55;;;18.80;82.80;;;;;;4990043;28;20084;-47
2023/05/19 09:44:22;;;;;;;5.35;2.08;;;19.10;82.50;;;;;;4991919;28;20046;-47
2023/05/19 09:46:49;;;;;;;8.57;2.03;;;18.90;81.90;;;;;;4992514;28;20414;-46
2023/05/19 09:49:24;;;;;;;12.52;2.10;;;18.80;82.60;;;;;;4992122;28;20341;-49
2023/05/19 09:51:56;;;;;;;;;;;19.10;82.90;;;;;;4992596;28;20062;-47
2023/05/19 09:54:23;;;;;;;7.38;1.70;;;19.30;82.20;;;;;;4992435;28;20392;-48
2023/05/19 09:57:07;;;;;;;4.22;1.70;;;19.20;79.70;;;;;;4992397;28;20105;-46
2023/05/19 09:59:33;;;;;;;3.78;1.65;;;19.10;82.20;;;;;;4987225;28;20518;-46
2023/05/19 10:02:00;;;;;;;9.30;1.52;;;19.10;80.20;;;;;;4976682;28;20406;-49
2023/05/19 10:04:27;;;;;;;3.72;1.70;;;18.90;78.90;;;;;;4976723;28;20037;-48
2023/05/19 10:06:54;;;;;;;4.97;2.33;;;19.00;80.50;;;;;;4976765;28;20085;-46
2023/05/19 10:09:24;;;;;;;7.13;1.67;;;18.90;81.40;;;;;;4976420;28;20023;-47
2023/05/19 10:11:54;;;;;;;15.15;7.55;;;18.80;80.00;;;;;;4976211;28;20098;-51
2023/05/19 10:14:32;;;;;;;30.63;15.48;;;18.90;80.00;;;;;;4976715;28;20093;-45
2023/05/19 10:16:58;;;;;;;5.10;2.08;;;18.90;79.50;;;;;;4976883;28;20022;-49
2023/05/19 10:19:26;;;;;;;3.00;1.70;;;18.70;79.60;;;;;;4988133;28;20034;-47
2023/05/19 10:21:53;;;;;;;4.35;1.77;;;18.90;78.90;;;;;;4994802;28;20026;-46
2023/05/19 10:24:18;;;;;;;6.15;2.08;;;18.90;80.90;;;;;;4995891;28;20042;-47
2023/05/19 10:27:00;;;;;;;5.78;1.92;;;19.00;79.80;;;;;;4995757;28;20023;-48
2023/05/19 10:29:30;;;;;;;6.57;1.88;;;19.00;78.60;;;;;;4995571;28;20031;-45
2023/05/19 10:32:00;;;;;;;5.45;1.50;;;19.00;78.90;;;;;;4995648;28;20030;-46
2023/05/19 10:34:58;;;;;;;4.32;1.40;;;19.10;80.20;;;;;;4995617;28;20518;-46
2023/05/19 10:37:27;;;;;;;4.05;1.60;;;19.00;79.70;;;;;;4995765;28;20037;-46
2023/05/19 10:39:54;;;;;;;3.08;1.45;;;19.00;80.20;;;;;;4995143;28;20494;-47
2023/05/19 10:42:39;;;;;;;6.75;1.85;;;19.10;81.70;;;;;;4995509;28;20025;-47
2023/05/19 10:45:08;;;;;;;5.20;1.90;;;19.20;79.40;;;;;;4995816;28;20018;-48
2023/05/19 10:47:33;;;;;;;5.25;1.88;;;19.20;81.40;;;;;;4995599;28;20081;-47
2023/05/19 10:50:05;;;;;;;6.10;2.03;;;19.10;82.00;;;;;;4994737;28;20486;-49
2023/05/19 10:52:36;;;;;;;5.10;2.05;;;18.70;81.90;;;;;;4995085;28;20022;-47
2023/05/19 10:55:03;;;;;;;4.85;1.48;;;18.60;81.20;;;;;;4995795;28;20363;-46
2023/05/19 10:57:31;;;;;;;5.03;3.05;;;18.60;81.40;;;;;;4995039;28;20094;-47
2023/05/19 10:59:59;;;;;;;5.22;1.90;;;18.60;81.90;;;;;;4994594;28;20096;-49
2023/05/19 11:02:41;;;;;;;6.22;2.17;;;18.80;83.20;;;;;;4994901;28;20027;-48
2023/05/19 11:05:15;;;;;;;7.20;1.88;;;18.60;82.90;;;;;;4995114;28;20026;-48
2023/05/19 11:07:55;;;;;;;4.23;1.80;;;18.60;83.60;;;;;;4994951;28;20458;-48
2023/05/19 11:10:24;;;;;;;6.68;1.70;;;18.60;82.30;;;;;;4993961;28;20118;-42
2023/05/19 11:12:50;;;;;;;4.95;1.70;;;18.60;82.90;;;;;;4993381;28;20494;-46
2023/05/19 11:15:16;;;;;;;5.00;1.75;;;18.50;84.40;;;;;;4994671;28;20457;-50
2023/05/19 11:17:47;;;;;;;4.90;1.90;;;18.40;84.00;;;;;;4997652;28;20058;-45
2023/05/19 11:20:27;;;;;;;5.35;1.75;;;18.50;83.60;;;;;;4989513;28;20042;-53
2023/05/19 11:23:09;;;;;;;4.15;1.40;;;18.60;84.60;;;;;;4994666;28;20038;-52
2023/05/19 11:25:44;;;;;;;3.30;1.73;;;18.70;83.90;;;;;;4994966;28;20030;-45
2023/05/19 11:28:13;;;;;;;1.88;1.55;;;18.50;83.80;;;;;;4993615;28;20046;-45
2023/05/19 11:30:41;;;;;;;5.72;2.42;;;18.40;85.30;;;;;;4992466;28;20073;-52
2023/05/19 11:33:07;;;;;;;6.38;2.10;;;18.40;84.50;;;;;;4993881;28;20029;-49
2023/05/19 11:35:34;;;;;;;3.40;1.73;;;18.40;84.60;;;;;;4994270;28;20104;-50
2023/05/19 11:38:00;;;;;;;2.92;1.75;;;18.90;85.00;;;;;;4994416;28;20026;-46
2023/05/19 11:40:26;;;;;;;3.55;1.50;;;18.40;86.30;;;;;;4978100;28;20031;-47
2023/05/19 11:42:51;;;;;;;25.73;13.52;;;18.60;86.10;;;;;;4972322;28;20384;-46
2023/05/19 11:45:26;;;;;;;46.60;27.48;;;18.70;85.70;;;;;;4983185;28;20091;-52
2023/05/19 11:47:55;;;;;;;10.13;5.20;;;18.80;86.30;;;;;;4993704;28;20026;-47
2023/05/19 11:50:21;;;;;;;6.45;2.08;;;18.90;85.50;;;;;;4993500;28;20034;-49
2023/05/19 11:52:49;;;;;;;7.50;1.90;;;19.00;84.30;;;;;;4993790;28;20037;-50
2023/05/19 11:55:21;;;;;;;10.13;2.50;;;19.10;83.70;;;;;;4994008;28;20049;-48
2023/05/19 11:57:57;;;;;;;3.95;1.95;;;19.20;84.50;;;;;;4994336;28;20486;-48
2023/05/19 12:00:24;;;;;;;6.45;1.63;;;19.30;86.00;;;;;;4992784;28;20030;-50
2023/05/19 12:02:49;;;;;;;4.30;2.20;;;19.40;86.00;;;;;;4993842;28;20026;-46
2023/05/19 12:05:25;;;;;;;4.47;2.33;;;19.30;83.70;;;;;;4983566;28;20033;-48
2023/05/19 12:07:51;;;;;;;4.88;2.10;;;19.20;84.30;;;;;;4994592;28;20027;-50
2023/05/19 12:10:27;;;;;;;4.68;1.98;;;19.10;84.50;;;;;;4992775;28;20042;-54
2023/05/19 12:12:54;;;;;;;2.33;1.40;;;19.20;85.20;;;;;;4991910;28;20037;-48
2023/05/19 12:15:21;;;;;;;3.92;1.80;;;19.30;84.00;;;;;;4979690;28;20106;-48
2023/05/19 12:18:00;;;;;;;3.58;1.67;;;19.50;84.20;;;;;;4983530;28;20084;-49
2023/05/19 12:20:27;;;;;;;4.70;1.88;;;19.60;84.00;;;;;;4993074;28;20045;-53
2023/05/19 12:22:57;;;;;;;5.57;1.92;;;19.80;84.20;;;;;;4992704;28;20030;-53
2023/05/19 12:25:23;;;;;;;3.72;1.55;;;19.90;84.60;;;;;;4993270;28;20036;-58
2023/05/19 12:27:51;;;;;;;3.78;1.80;;;19.70;82.80;;;;;;4993856;28;20023;-50
2023/05/19 12:30:17;;;;;;;8.40;1.85;;;19.90;82.60;;;;;;4993190;28;20033;-55
2023/05/19 12:32:42;;;;;;;2.42;1.27;;;19.80;83.60;;;;;;4995146;28;20038;-51
2023/05/19 12:35:08;;;;;;;3.30;1.50;;;19.80;82.90;;;;;;4994933;28;20038;-56
2023/05/19 12:37:39;;;;;;;4.80;1.63;;;19.60;83.40;;;;;;4994056;28;20030;-54
2023/05/19 12:40:05;;;;;;;5.18;1.85;;;19.50;83.60;;;;;;4974538;28;20231;-53
2023/05/19 12:42:32;;;;;;;5.47;2.38;;;19.50;83.90;;;;;;4992359;28;20099;-53
2023/05/19 12:44:58;;;;;;;8.55;3.35;;;19.60;83.50;;;;;;4993777;28;20489;-55
2023/05/19 12:47:33;;;;;;;7.38;2.42;;;19.50;83.60;;;;;;4993953;28;20040;-53
2023/05/19 12:49:59;;;;;;;2.33;1.60;;;19.50;84.20;;;;;;4992744;28;20030;-51
2023/05/19 12:52:26;;;;;;;5.07;1.70;;;19.50;84.10;;;;;;4993774;28;20414;-48